Time;durP1;ratioP1;P1;durP2;ratioP2;P2;SDS_P1;SDS_P2;PMS_P1;PMS_P2;Temp;Humidity;BMP_temperature;BMP_pressure;BME280_temperature;BME280_humidity;BME280_pressure;Samples;Min_cycle;Max_cycle;Signal;HPM_P1;HPM_P2
2023/06/07 00:00:22;;;;;;;11.30;7.38;;;16.40;99.90;;;;;;4998734;28;20073;-71
2023/06/07 00:02:47;;;;;;;11.75;9.30;;;16.40;99.90;;;;;;4997357;28;20090;-71
2023/06/07 00:05:13;;;;;;;12.73;8.45;;;16.40;99.90;;;;;;5006421;28;20085;-71
2023/06/07 00:07:39;;;;;;;9.52;8.52;;;16.40;99.90;;;;;;4997321;28;20026;-69
2023/06/07 00:10:05;;;;;;;15.32;7.93;;;16.40;99.90;;;;;;4996574;28;20030;-71
2023/06/07 00:12:31;;;;;;;10.05;8.82;;;16.30;99.90;;;;;;4997282;28;20014;-71
2023/06/07 00:14:59;;;;;;;9.75;8.60;;;16.30;99.90;;;;;;4996998;28;20018;-71
2023/06/07 00:17:27;;;;;;;10.52;9.43;;;16.30;99.90;;;;;;4997262;28;20022;-71
2023/06/07 00:19:56;;;;;;;10.43;9.32;;;16.20;99.90;;;;;;4996795;28;20050;-71
2023/06/07 00:22:22;;;;;;;15.00;9.85;;;16.20;99.90;;;;;;4979824;28;20042;-71
2023/06/07 00:24:51;;;;;;;10.65;9.30;;;16.20;99.90;;;;;;4996730;28;20026;-71
2023/06/07 00:27:17;;;;;;;11.73;9.32;;;16.20;99.90;;;;;;4997290;28;20042;-71
2023/06/07 00:29:42;;;;;;;15.18;10.57;;;16.10;99.90;;;;;;4996966;28;20026;-71
2023/06/07 00:32:08;;;;;;;12.75;10.52;;;16.10;99.90;;;;;;4997042;28;20106;-71
2023/06/07 00:34:34;;;;;;;12.52;9.98;;;16.10;99.90;;;;;;4996830;28;20034;-71
2023/06/07 00:36:59;;;;;;;16.40;10.73;;;16.10;99.90;;;;;;4997699;28;20022;-71
2023/06/07 00:39:25;;;;;;;17.33;10.30;;;16.10;99.90;;;;;;5000496;28;20973;-71
2023/06/07 00:41:52;;;;;;;12.55;10.68;;;16.10;99.90;;;;;;5000688;28;20037;-71
2023/06/07 00:44:18;;;;;;;13.98;10.85;;;16.10;99.90;;;;;;5000592;28;20088;-71
2023/06/07 00:46:44;;;;;;;11.55;9.52;;;16.10;99.90;;;;;;5000299;28;20113;-71
2023/06/07 00:49:16;;;;;;;11.63;10.43;;;16.10;99.90;;;;;;5000425;28;20049;-71
2023/06/07 00:51:42;;;;;;;13.48;11.02;;;16.10;99.90;;;;;;5000448;28;20041;-71
2023/06/07 00:54:08;;;;;;;12.48;10.07;;;16.10;99.90;;;;;;5000349;28;20134;-71
2023/06/07 00:56:35;;;;;;;11.77;10.32;;;16.00;99.90;;;;;;5004257;28;20065;-71
2023/06/07 00:59:02;;;;;;;14.48;9.75;;;16.00;99.90;;;;;;5019856;28;20022;-71
2023/06/07 01:01:27;;;;;;;14.40;9.68;;;16.00;99.90;;;;;;5019832;28;20109;-72
2023/06/07 01:03:53;;;;;;;13.43;10.00;;;16.00;99.90;;;;;;5022987;28;20053;-71
2023/06/07 01:06:21;;;;;;;11.93;9.88;;;16.00;99.90;;;;;;5025736;28;20085;-71
2023/06/07 01:08:48;;;;;;;12.85;10.70;;;16.00;99.90;;;;;;5014529;28;20025;-71
2023/06/07 01:11:15;;;;;;;14.50;9.63;;;15.90;99.90;;;;;;5010934;28;20480;-71
2023/06/07 01:13:42;;;;;;;13.25;10.23;;;15.90;99.90;;;;;;5015800;28;20029;-71
2023/06/07 01:16:08;;;;;;;16.98;9.48;;;15.90;99.90;;;;;;5019571;28;20014;-72
2023/06/07 01:18:34;;;;;;;12.13;9.63;;;15.90;99.90;;;;;;5019507;28;20052;-71
2023/06/07 01:21:02;;;;;;;13.93;9.75;;;15.90;99.90;;;;;;5002104;28;20093;-71
2023/06/07 01:23:32;;;;;;;14.52;9.48;;;15.90;99.90;;;;;;5019449;28;20037;-71
2023/06/07 01:26:00;;;;;;;12.63;10.20;;;15.90;99.90;;;;;;5019206;28;20034;-71
2023/06/07 01:28:28;;;;;;;16.70;11.18;;;15.90;99.90;;;;;;5019503;28;20109;-71
2023/06/07 01:30:55;;;;;;;10.68;9.57;;;15.90;99.90;;;;;;5019011;28;20367;-71
2023/06/07 01:33:21;;;;;;;11.45;9.73;;;15.90;99.90;;;;;;5019132;28;20394;-71
2023/06/07 01:35:53;;;;;;;15.10;9.93;;;15.90;99.90;;;;;;5019044;28;20025;-71
2023/06/07 01:38:20;;;;;;;13.55;9.30;;;15.80;99.90;;;;;;5008807;28;20029;-71
2023/06/07 01:40:46;;;;;;;15.00;9.00;;;15.90;99.90;;;;;;5018609;28;20036;-71
2023/06/07 01:43:12;;;;;;;13.75;8.77;;;15.80;99.90;;;;;;5019162;28;20038;-71
2023/06/07 01:45:39;;;;;;;12.10;9.40;;;15.80;99.90;;;;;;5019024;28;21205;-71
2023/06/07 01:48:05;;;;;;;11.15;8.90;;;15.80;99.90;;;;;;5019036;28;20030;-71
2023/06/07 01:50:31;;;;;;;14.98;8.77;;;15.80;99.90;;;;;;5018194;28;20056;-71
2023/06/07 01:52:56;;;;;;;12.25;8.98;;;15.70;99.90;;;;;;5018986;28;20026;-71
2023/06/07 01:55:24;;;;;;;11.13;8.95;;;15.70;99.90;;;;;;5017335;28;20367;-71
2023/06/07 01:58:12;;;;;;;15.32;8.80;;;15.70;99.90;;;;;;5015159;28;20068;-71
2023/06/07 02:01:05;;;;;;;15.57;9.00;;;15.70;99.90;;;;;;5018887;28;20026;-71
2023/06/07 02:03:41;;;;;;;12.93;8.82;;;15.70;99.90;;;;;;5013233;28;20033;-71
2023/06/07 02:06:11;;;;;;;13.50;7.85;;;15.70;99.90;;;;;;5008092;28;20054;-71
2023/06/07 02:08:50;;;;;;;13.80;8.18;;;15.70;99.90;;;;;;5000984;28;20041;-71
2023/06/07 02:11:16;;;;;;;10.65;8.05;;;15.70;99.90;;;;;;5018751;28;20482;-71
2023/06/07 02:13:43;;;;;;;15.45;8.70;;;15.60;99.90;;;;;;5018427;28;20030;-71
2023/06/07 02:16:10;;;;;;;15.32;9.35;;;15.60;99.90;;;;;;5018362;28;20025;-71
2023/06/07 02:18:42;;;;;;;11.57;9.75;;;15.60;99.90;;;;;;5018340;28;20033;-71
2023/06/07 02:21:11;;;;;;;11.77;9.40;;;15.60;99.90;;;;;;5011145;28;20482;-71
2023/06/07 02:23:37;;;;;;;11.93;9.60;;;15.60;99.90;;;;;;5018286;28;20486;-71
2023/06/07 02:26:04;;;;;;;11.30;9.23;;;15.60;99.90;;;;;;5018045;28;20022;-71
2023/06/07 02:28:30;;;;;;;13.63;10.20;;;15.50;99.90;;;;;;5017289;28;20026;-71
2023/06/07 02:30:57;;;;;;;20.05;9.88;;;15.60;99.90;;;;;;5012223;28;20108;-71
2023/06/07 02:33:26;;;;;;;16.35;9.45;;;15.50;99.90;;;;;;5018241;28;20018;-71
2023/06/07 02:35:52;;;;;;;14.60;9.05;;;15.50;99.90;;;;;;5017915;28;20021;-71
2023/06/07 02:38:18;;;;;;;11.00;9.38;;;15.50;99.90;;;;;;5001569;28;20116;-71
2023/06/07 02:40:43;;;;;;;17.10;9.98;;;15.50;99.90;;;;;;5017539;28;20652;-71
2023/06/07 02:43:09;;;;;;;13.70;9.43;;;15.50;99.90;;;;;;5018072;28;20497;-71
2023/06/07 02:45:35;;;;;;;10.57;9.40;;;15.50;99.90;;;;;;5017890;28;20474;-71
2023/06/07 02:48:01;;;;;;;13.27;9.80;;;15.50;99.90;;;;;;5018057;28;20041;-71
2023/06/07 02:50:26;;;;;;;16.35;10.65;;;15.50;99.90;;;;;;5017619;28;20386;-71
2023/06/07 02:52:52;;;;;;;15.80;11.35;;;15.40;99.90;;;;;;5018108;28;20394;-71
2023/06/07 02:55:18;;;;;;;14.20;9.60;;;15.40;99.90;;;;;;5016114;28;20037;-71
2023/06/07 02:57:44;;;;;;;13.38;10.45;;;15.50;99.90;;;;;;5017577;28;20065;-71
2023/06/07 03:00:11;;;;;;;10.35;9.25;;;15.40;99.90;;;;;;4999144;28;20025;-71
2023/06/07 03:02:37;;;;;;;11.82;9.32;;;15.40;99.90;;;;;;5011161;28;20113;-71
2023/06/07 03:05:04;;;;;;;12.00;9.02;;;15.40;99.90;;;;;;5017173;28;20030;-71
2023/06/07 03:07:32;;;;;;;11.65;8.73;;;15.40;99.90;;;;;;5016586;28;20022;-71
2023/06/07 03:09:58;;;;;;;13.48;9.10;;;15.30;99.90;;;;;;5016619;28;20018;-71
2023/06/07 03:12:23;;;;;;;13.38;8.98;;;15.30;99.90;;;;;;5017456;28;20022;-71
2023/06/07 03:14:49;;;;;;;14.00;9.88;;;15.30;99.90;;;;;;5017259;28;20029;-71
2023/06/07 03:17:17;;;;;;;16.33;10.98;;;15.20;99.90;;;;;;5017441;28;20037;-71
2023/06/07 03:19:43;;;;;;;19.60;10.35;;;15.20;99.90;;;;;;5017479;28;20030;-71
2023/06/07 03:22:08;;;;;;;13.20;10.02;;;15.20;99.90;;;;;;5017086;28;20034;-71
2023/06/07 03:24:36;;;;;;;10.38;9.32;;;15.20;99.90;;;;;;5017105;28;20072;-71
2023/06/07 03:27:03;;;;;;;16.17;10.32;;;15.20;99.90;;;;;;5013910;28;20030;-71
2023/06/07 03:29:30;;;;;;;12.48;10.50;;;15.20;99.90;;;;;;4999463;28;20825;-71
2023/06/07 03:31:56;;;;;;;20.13;10.55;;;15.20;99.90;;;;;;5017374;28;20037;-71
2023/06/07 03:34:22;;;;;;;15.73;10.48;;;15.20;99.90;;;;;;5017008;28;20014;-71
2023/06/07 03:36:48;;;;;;;11.77;9.40;;;15.20;99.90;;;;;;5017198;28;20022;-71
2023/06/07 03:39:14;;;;;;;13.85;10.93;;;15.10;99.90;;;;;;5016674;28;20521;-71
2023/06/07 03:41:40;;;;;;;16.52;11.30;;;15.10;99.90;;;;;;5017269;28;20030;-71
2023/06/07 03:44:05;;;;;;;16.40;11.23;;;15.10;99.90;;;;;;5016929;28;20030;-71
2023/06/07 03:46:31;;;;;;;13.82;11.27;;;15.10;99.90;;;;;;5006674;28;20037;-71
2023/06/07 03:48:57;;;;;;;13.65;10.90;;;15.10;99.90;;;;;;5017619;28;20514;-71
2023/06/07 03:51:22;;;;;;;17.33;10.82;;;15.00;99.90;;;;;;5016983;28;20084;-71
2023/06/07 03:53:48;;;;;;;13.90;10.63;;;15.00;99.90;;;;;;5016716;28;20018;-71
2023/06/07 03:56:15;;;;;;;16.17;11.27;;;15.00;99.90;;;;;;5016949;28;20069;-71
2023/06/07 03:58:40;;;;;;;15.40;9.90;;;14.90;99.90;;;;;;4999134;28;20494;-71
2023/06/07 04:01:06;;;;;;;13.75;10.10;;;14.90;99.90;;;;;;5017144;28;20029;-71
2023/06/07 04:03:32;;;;;;;13.60;11.13;;;14.90;99.90;;;;;;5017582;28;20109;-71
2023/06/07 04:05:58;;;;;;;19.17;12.02;;;14.90;99.90;;;;;;5025318;28;20113;-71
2023/06/07 04:08:24;;;;;;;14.27;11.25;;;14.90;99.90;;;;;;5016682;28;20069;-71
2023/06/07 04:10:50;;;;;;;14.13;11.45;;;14.90;99.90;;;;;;5016626;28;20030;-71
2023/06/07 04:13:16;;;;;;;14.38;11.35;;;14.90;99.90;;;;;;5015184;28;20028;-71
2023/06/07 04:15:42;;;;;;;17.33;11.10;;;14.90;99.90;;;;;;5020862;28;20034;-71
2023/06/07 04:18:08;;;;;;;14.90;12.30;;;15.00;99.90;;;;;;5020489;28;20022;-71
2023/06/07 04:20:34;;;;;;;14.52;11.23;;;15.00;99.90;;;;;;5020745;28;20053;-71
2023/06/07 04:23:00;;;;;;;18.48;11.65;;;15.00;99.90;;;;;;5020269;28;20548;-71
2023/06/07 04:25:34;;;;;;;13.40;11.18;;;15.00;99.90;;;;;;5020476;28;20056;-71
2023/06/07 04:28:01;;;;;;;20.48;14.02;;;15.00;99.90;;;;;;5020302;28;20029;-71
2023/06/07 04:30:34;;;;;;;16.65;11.07;;;15.00;99.90;;;;;;5020586;28;20025;-71
2023/06/07 04:33:03;;;;;;;18.67;10.30;;;15.00;99.90;;;;;;5015685;28;20040;-71
2023/06/07 04:35:31;;;;;;;11.40;9.80;;;15.00;99.90;;;;;;5020332;28;20025;-71
2023/06/07 04:38:01;;;;;;;12.60;10.23;;;15.00;99.90;;;;;;5020497;28;20034;-71
2023/06/07 04:40:28;;;;;;;17.65;10.75;;;15.00;99.90;;;;;;5002266;28;20022;-71
2023/06/07 04:43:06;;;;;;;16.67;11.05;;;15.00;99.90;;;;;;5008799;28;20050;-71
2023/06/07 04:45:41;;;;;;;12.27;10.65;;;15.10;99.90;;;;;;5002217;28;20018;-71
2023/06/07 04:48:07;;;;;;;14.90;11.30;;;15.20;99.90;;;;;;5020146;28;20037;-71
2023/06/07 04:50:34;;;;;;;15.00;11.23;;;15.20;99.90;;;;;;5019911;28;20419;-71
2023/06/07 04:53:03;;;;;;;16.00;10.43;;;15.30;99.90;;;;;;5020174;28;20022;-72
2023/06/07 04:55:31;;;;;;;17.70;12.55;;;15.30;99.90;;;;;;5019477;28;20017;-71
2023/06/07 04:57:58;;;;;;;14.73;11.70;;;15.40;99.90;;;;;;5003005;28;20404;-71
2023/06/07 05:00:27;;;;;;;15.13;11.73;;;15.50;99.90;;;;;;5019602;28;20074;-71
2023/06/07 05:02:53;;;;;;;18.67;12.05;;;15.60;99.90;;;;;;5020059;28;20022;-71
2023/06/07 05:05:21;;;;;;;16.83;11.60;;;15.60;99.90;;;;;;5028642;28;20406;-71
2023/06/07 05:07:49;;;;;;;18.52;12.45;;;15.70;99.90;;;;;;5019901;28;20025;-71
2023/06/07 05:10:15;;;;;;;20.75;15.07;;;15.90;99.90;;;;;;5019422;28;20057;-72
2023/06/07 05:12:40;;;;;;;18.30;14.88;;;16.10;99.90;;;;;;5019751;28;20029;-71
2023/06/07 05:15:07;;;;;;;20.02;14.15;;;16.20;99.90;;;;;;5015377;28;20022;-71
2023/06/07 05:17:32;;;;;;;18.20;13.77;;;16.40;99.90;;;;;;5018219;28;20391;-71
2023/06/07 05:19:58;;;;;;;21.45;14.52;;;16.50;99.90;;;;;;5019361;28;20018;-71
2023/06/07 05:22:24;;;;;;;23.73;16.38;;;16.60;99.90;;;;;;5019695;28;20033;-71
2023/06/07 05:24:50;;;;;;;20.90;14.75;;;16.60;99.90;;;;;;5018270;28;20021;-71
2023/06/07 05:27:16;;;;;;;25.13;15.05;;;16.70;99.90;;;;;;5019412;28;20034;-71
2023/06/07 05:29:41;;;;;;;19.90;14.18;;;16.70;99.90;;;;;;5019031;28;20161;-71
2023/06/07 05:32:07;;;;;;;19.40;15.27;;;16.70;99.90;;;;;;5019286;28;20152;-71
2023/06/07 05:34:35;;;;;;;29.30;16.20;;;16.70;99.90;;;;;;5018996;28;20072;-71
2023/06/07 05:37:02;;;;;;;28.73;16.30;;;16.70;99.90;;;;;;5019440;28;20049;-71
2023/06/07 05:39:27;;;;;;;20.95;17.05;;;16.80;99.90;;;;;;5018950;28;20029;-71
2023/06/07 05:41:53;;;;;;;19.80;16.88;;;16.90;99.90;;;;;;5019245;28;20030;-71
2023/06/07 05:44:19;;;;;;;21.98;16.73;;;17.00;99.90;;;;;;5013462;28;20095;-71
2023/06/07 05:46:44;;;;;;;21.80;15.15;;;17.10;99.90;;;;;;5019237;28;20438;-71
2023/06/07 05:49:10;;;;;;;18.85;14.57;;;17.30;99.90;;;;;;5018742;28;20045;-71
2023/06/07 05:51:36;;;;;;;21.35;15.25;;;17.30;99.90;;;;;;5001158;28;20030;-71
2023/06/07 05:54:02;;;;;;;21.98;16.05;;;17.50;99.90;;;;;;5018646;28;20021;-71
2023/06/07 05:56:28;;;;;;;21.23;15.20;;;17.60;99.90;;;;;;5015306;28;20057;-71
2023/06/07 05:58:53;;;;;;;20.42;16.13;;;17.80;99.90;;;;;;4999130;28;20018;-71
2023/06/07 06:01:21;;;;;;;23.38;14.98;;;18.00;99.90;;;;;;4998924;28;20054;-70
2023/06/07 06:03:46;;;;;;;24.45;14.93;;;18.10;99.90;;;;;;5001795;28;20030;-70
2023/06/07 06:06:16;;;;;;;20.48;14.40;;;18.30;99.90;;;;;;5002948;28;20069;-70
2023/06/07 06:08:42;;;;;;;22.70;14.95;;;18.50;99.90;;;;;;4998550;28;20464;-70
2023/06/07 06:11:13;;;;;;;18.20;14.75;;;18.70;99.90;;;;;;4998780;28;20041;-70
2023/06/07 06:13:39;;;;;;;18.77;14.07;;;18.80;99.90;;;;;;4999013;28;20026;-70
2023/06/07 06:16:05;;;;;;;15.57;12.70;;;19.00;99.90;;;;;;4998786;28;20565;-69
2023/06/07 06:18:31;;;;;;;16.27;12.02;;;19.10;99.90;;;;;;4998812;28;20375;-70
2023/06/07 06:21:00;;;;;;;16.60;12.60;;;19.30;99.90;;;;;;4998597;28;20022;-70
2023/06/07 06:23:26;;;;;;;14.02;11.75;;;19.40;99.90;;;;;;4998800;28;20030;-69
2023/06/07 06:25:51;;;;;;;14.02;11.80;;;19.50;99.90;;;;;;4998217;28;20033;-70
2023/06/07 06:28:17;;;;;;;17.33;10.88;;;19.60;99.90;;;;;;4993228;28;20034;-70
2023/06/07 06:30:44;;;;;;;12.32;9.43;;;19.70;99.90;;;;;;5001671;28;20026;-70
2023/06/07 06:33:10;;;;;;;12.23;10.07;;;19.70;99.90;;;;;;4998482;28;20010;-70
2023/06/07 06:35:37;;;;;;;17.48;10.02;;;19.80;99.90;;;;;;4998333;28;20018;-69
2023/06/07 06:38:02;;;;;;;10.23;8.70;;;19.90;99.90;;;;;;4998462;28;20014;-69
2023/06/07 06:40:28;;;;;;;13.80;9.93;;;19.90;99.90;;;;;;4998054;28;20041;-70
2023/06/07 06:42:54;;;;;;;10.68;8.90;;;20.00;99.90;;;;;;4992840;28;20463;-70
2023/06/07 06:45:20;;;;;;;10.27;8.07;;;20.30;99.90;;;;;;4998260;28;20022;-69
2023/06/07 06:47:45;;;;;;;9.80;7.15;;;20.30;99.90;;;;;;4998286;28;20023;-69
2023/06/07 06:50:13;;;;;;;9.95;8.73;;;20.50;99.90;;;;;;4977333;28;20030;-69
2023/06/07 06:52:41;;;;;;;11.38;8.60;;;20.50;99.90;;;;;;4996166;28;20029;-70
2023/06/07 06:55:07;;;;;;;9.68;8.60;;;20.50;99.90;;;;;;4997733;28;20015;-70
2023/06/07 06:57:32;;;;;;;10.25;8.80;;;20.50;99.90;;;;;;4997851;28;20040;-70
2023/06/07 07:00:00;;;;;;;11.38;8.07;;;20.50;99.90;;;;;;4997965;28;20018;-70
2023/06/07 07:02:26;;;;;;;11.05;7.30;;;20.60;99.90;;;;;;4998034;28;20026;-70
2023/06/07 07:04:52;;;;;;;8.80;7.43;;;20.60;99.90;;;;;;5004546;28;20026;-70
2023/06/07 07:07:18;;;;;;;12.35;7.38;;;20.80;99.90;;;;;;4980136;28;20046;-70
2023/06/07 07:09:44;;;;;;;10.20;7.07;;;20.90;99.90;;;;;;4997757;28;20084;-69
2023/06/07 07:12:11;;;;;;;10.25;8.02;;;20.90;99.90;;;;;;4996136;28;20414;-69
2023/06/07 07:14:36;;;;;;;9.43;7.03;;;21.00;99.90;;;;;;4980302;28;20018;-69
2023/06/07 07:17:02;;;;;;;9.95;7.35;;;21.10;99.90;;;;;;4995711;28;20551;-69
2023/06/07 07:19:28;;;;;;;8.85;7.72;;;21.10;99.90;;;;;;4997894;28;20030;-69
2023/06/07 07:21:54;;;;;;;8.57;7.18;;;21.10;99.90;;;;;;4997626;28;20081;-69
2023/06/07 07:24:19;;;;;;;8.38;7.22;;;21.10;99.90;;;;;;4997566;28;20036;-70
2023/06/07 07:26:46;;;;;;;8.70;7.30;;;21.20;99.90;;;;;;4997362;28;20082;-69
2023/06/07 07:29:11;;;;;;;10.15;7.22;;;21.30;99.90;;;;;;4976887;28;20042;-69
2023/06/07 07:31:37;;;;;;;12.30;7.10;;;21.40;99.90;;;;;;4994976;28;20461;-69
2023/06/07 07:34:04;;;;;;;7.85;6.00;;;21.20;99.90;;;;;;4996188;28;20030;-69
2023/06/07 07:36:33;;;;;;;13.85;7.40;;;21.30;99.90;;;;;;4997404;28;20081;-69
2023/06/07 07:38:59;;;;;;;9.40;6.32;;;21.70;99.90;;;;;;4997432;28;20014;-69
2023/06/07 07:41:25;;;;;;;8.98;5.90;;;21.80;99.90;;;;;;4996372;28;20033;-69
2023/06/07 07:43:51;;;;;;;7.32;6.10;;;21.80;99.90;;;;;;4997402;28;20026;-69
2023/06/07 07:46:17;;;;;;;8.80;5.63;;;21.90;99.90;;;;;;4997187;28;20037;-69
2023/06/07 07:48:43;;;;;;;6.85;6.00;;;22.00;99.90;;;;;;4996079;28;20026;-69
2023/06/07 07:51:09;;;;;;;8.20;5.80;;;21.90;99.90;;;;;;4997490;28;20077;-69
2023/06/07 07:53:35;;;;;;;6.38;5.70;;;21.80;99.90;;;;;;4997239;28;20030;-69
2023/06/07 07:56:01;;;;;;;9.20;5.65;;;21.90;99.90;;;;;;4997154;28;20053;-69
2023/06/07 07:58:27;;;;;;;7.97;6.03;;;22.10;99.90;;;;;;4997139;28;20084;-69
2023/06/07 08:00:52;;;;;;;6.07;5.47;;;22.30;99.90;;;;;;4997120;28;20610;-69
2023/06/07 08:03:18;;;;;;;8.48;5.32;;;22.40;99.90;;;;;;4994184;28;20026;-69
2023/06/07 08:05:44;;;;;;;6.80;5.13;;;22.40;99.90;;;;;;5007020;28;20027;-69
2023/06/07 08:08:10;;;;;;;6.88;5.50;;;22.40;99.90;;;;;;4997226;28;20054;-69
2023/06/07 08:10:37;;;;;;;7.13;5.05;;;22.40;99.90;;;;;;4996304;28;20038;-69
2023/06/07 08:13:02;;;;;;;7.43;5.53;;;22.40;99.90;;;;;;4996312;28;20491;-69
2023/06/07 08:15:31;;;;;;;6.18;5.15;;;22.30;99.90;;;;;;4996810;28;20050;-69
2023/06/07 08:17:57;;;;;;;7.18;5.05;;;22.50;99.90;;;;;;4997086;28;20015;-69
2023/06/07 08:20:22;;;;;;;7.65;5.32;;;22.60;99.90;;;;;;4979378;28;20436;-69
2023/06/07 08:22:50;;;;;;;9.60;5.32;;;22.60;99.90;;;;;;4996909;28;20011;-69
2023/06/07 08:25:16;;;;;;;16.25;5.18;;;22.60;99.90;;;;;;4996488;28;20464;-69
2023/06/07 08:27:42;;;;;;;5.80;5.03;;;22.70;99.90;;;;;;4996659;28;20019;-69
2023/06/07 08:30:09;;;;;;;6.90;4.78;;;22.80;99.90;;;;;;4995976;28;20030;-69
2023/06/07 08:32:34;;;;;;;6.80;5.22;;;22.80;99.90;;;;;;4979250;28;20122;-69
2023/06/07 08:35:00;;;;;;;7.88;5.97;;;22.90;99.90;;;;;;4996781;28;20471;-69
2023/06/07 08:37:26;;;;;;;7.18;5.00;;;23.10;99.90;;;;;;4996580;28;20046;-69
2023/06/07 08:39:52;;;;;;;9.00;4.70;;;23.00;99.90;;;;;;4996383;28;20029;-69
2023/06/07 08:42:17;;;;;;;8.30;4.63;;;23.20;99.90;;;;;;4996652;28;20125;-69
2023/06/07 08:44:43;;;;;;;5.65;4.57;;;23.40;99.90;;;;;;4996596;28;20446;-69
2023/06/07 08:47:11;;;;;;;6.53;5.13;;;23.40;99.90;;;;;;4993069;28;20101;-69
2023/06/07 08:49:40;;;;;;;4.97;4.28;;;23.40;99.90;;;;;;4996746;28;20027;-69
2023/06/07 08:52:09;;;;;;;10.98;4.80;;;23.50;99.90;;;;;;4978989;28;20026;-69
2023/06/07 08:54:40;;;;;;;6.05;4.88;;;23.50;99.90;;;;;;4996616;28;20057;-69
2023/06/07 08:57:07;;;;;;;8.70;4.70;;;23.60;99.90;;;;;;4996276;28;20057;-69
2023/06/07 08:59:34;;;;;;;5.13;4.28;;;23.50;99.90;;;;;;4997775;28;20022;-69
2023/06/07 09:02:01;;;;;;;5.43;4.75;;;23.50;99.90;;;;;;4982385;28;20023;-71
2023/06/07 09:04:27;;;;;;;5.63;4.50;;;23.70;99.90;;;;;;4999949;28;20033;-70
2023/06/07 09:06:53;;;;;;;5.45;4.43;;;23.90;99.90;;;;;;4999741;28;20593;-71
2023/06/07 09:09:19;;;;;;;5.88;4.05;;;23.90;99.90;;;;;;4999658;28;20100;-71
2023/06/07 09:11:51;;;;;;;5.38;3.83;;;23.80;99.90;;;;;;4981929;28;20072;-71
2023/06/07 09:14:17;;;;;;;4.85;4.28;;;23.90;99.90;;;;;;4999932;28;20030;-71
2023/06/07 09:16:54;;;;;;;6.43;4.55;;;24.00;99.90;;;;;;4998518;28;20105;-71
2023/06/07 09:19:32;;;;;;;5.53;4.28;;;24.00;99.90;;;;;;4992789;28;20547;-71
2023/06/07 09:21:58;;;;;;;5.97;3.97;;;23.90;99.90;;;;;;4998030;28;20046;-70
2023/06/07 09:24:28;;;;;;;9.52;4.13;;;24.10;99.90;;;;;;4999365;28;20490;-70
2023/06/07 09:26:55;;;;;;;5.03;3.45;;;24.10;99.90;;;;;;4999609;28;20073;-70
2023/06/07 09:29:21;;;;;;;6.05;3.75;;;24.20;99.90;;;;;;4999675;28;20062;-71
2023/06/07 09:31:47;;;;;;;5.35;3.63;;;24.40;99.90;;;;;;4995829;28;20517;-70
2023/06/07 09:34:20;;;;;;;4.63;3.42;;;24.50;99.90;;;;;;4999428;28;20502;-70
2023/06/07 09:36:58;;;;;;;3.90;3.30;;;24.60;99.90;;;;;;4999252;28;20015;-70
2023/06/07 09:39:26;;;;;;;4.63;3.63;;;24.70;99.90;;;;;;4997723;28;20038;-71
2023/06/07 09:41:56;;;;;;;9.38;3.90;;;24.70;99.90;;;;;;4999594;28;20613;-70
2023/06/07 09:44:30;;;;;;;6.88;4.15;;;24.70;99.90;;;;;;4999307;28;20049;-70
2023/06/07 09:46:57;;;;;;;8.10;5.22;;;24.80;99.90;;;;;;4999476;28;20033;-70
2023/06/07 09:49:34;;;;;;;4.60;3.45;;;24.80;99.90;;;;;;4999152;28;20022;-70
2023/06/07 09:52:04;;;;;;;5.53;3.42;;;24.80;99.90;;;;;;4999082;28;20101;-70
2023/06/07 09:54:36;;;;;;;6.50;3.63;;;24.90;99.90;;;;;;4998759;28;20033;-70
2023/06/07 09:57:10;;;;;;;7.13;4.05;;;25.00;99.90;;;;;;4998457;28;20038;-70
2023/06/07 09:59:37;;;;;;;4.47;3.42;;;25.00;99.90;;;;;;4998989;28;20026;-70
2023/06/07 10:02:24;;;;;;;5.18;4.15;;;24.90;99.90;;;;;;4998858;28;20030;-70
2023/06/07 10:04:50;;;;;;;4.72;4.13;;;24.90;99.90;;;;;;5006423;28;20101;-70
2023/06/07 10:07:20;;;;;;;4.63;3.53;;;25.00;99.90;;;;;;4998622;28;20447;-70
2023/06/07 10:09:49;;;;;;;6.45;3.97;;;25.00;99.90;;;;;;4998023;28;20014;-70
2023/06/07 10:12:17;;;;;;;7.20;3.72;;;25.10;99.90;;;;;;4997447;28;20128;-70
2023/06/07 10:14:45;;;;;;;5.32;3.33;;;25.10;99.90;;;;;;4998925;28;20018;-70
2023/06/07 10:17:14;;;;;;;6.18;3.20;;;25.20;99.90;;;;;;4998571;28;20143;-71
2023/06/07 10:19:51;;;;;;;4.13;2.60;;;25.30;99.90;;;;;;4998565;28;20057;-71
2023/06/07 10:22:22;;;;;;;5.35;3.38;;;25.30;99.90;;;;;;4998748;28;20068;-70
2023/06/07 10:24:47;;;;;;;;;;;25.40;99.90;;;;;;4998627;28;20030;-70
2023/06/07 10:27:16;;;;;;;4.95;3.38;;;25.30;99.90;;;;;;4998361;28;19993;-70
2023/06/07 10:29:55;;;;;;;7.10;3.60;;;25.40;99.90;;;;;;4998643;28;20018;-70
2023/06/07 10:32:34;;;;;;;4.35;3.70;;;25.40;99.90;;;;;;4998401;28;20038;-70
2023/06/07 10:35:02;;;;;;;7.57;3.67;;;25.50;99.90;;;;;;4998339;28;20033;-70
2023/06/07 10:37:33;;;;;;;4.90;3.33;;;25.60;99.90;;;;;;4998048;28;20022;-70
2023/06/07 10:40:05;;;;;;;5.47;3.30;;;25.60;99.90;;;;;;4990229;28;20026;-70
2023/06/07 10:42:32;;;;;;;5.47;3.70;;;25.50;99.90;;;;;;4996842;28;20029;-70
2023/06/07 10:44:57;;;;;;;5.65;3.35;;;25.50;99.90;;;;;;4998250;28;20105;-70
2023/06/07 10:47:30;;;;;;;6.82;3.53;;;25.60;99.90;;;;;;4998117;28;20064;-71
2023/06/07 10:49:56;;;;;;;4.80;3.25;;;25.80;99.90;;;;;;4989345;28;20025;-71
2023/06/07 10:52:24;;;;;;;4.22;2.92;;;25.90;99.90;;;;;;4997886;28;20490;-71
2023/06/07 10:54:49;;;;;;;5.75;3.58;;;25.90;99.90;;;;;;4997911;28;20026;-71
2023/06/07 10:57:31;;;;;;;4.53;2.75;;;25.90;99.90;;;;;;4997540;28;20065;-70
2023/06/07 11:00:24;;;;;;;5.05;3.03;;;25.90;99.90;;;;;;4997867;28;20018;-70
2023/06/07 11:02:50;;;;;;;6.45;2.90;;;26.00;99.90;;;;;;4977454;28;20510;-72
2023/06/07 11:05:16;;;;;;;4.82;2.80;;;26.00;99.90;;;;;;5000689;28;20395;-71
2023/06/07 11:07:47;;;;;;;8.10;3.10;;;26.10;99.90;;;;;;4997720;28;20019;-71
2023/06/07 11:10:16;;;;;;;4.28;3.10;;;26.20;99.90;;;;;;4997496;28;20046;-71
2023/06/07 11:12:45;;;;;;;7.82;2.63;;;26.40;99.90;;;;;;4997502;28;20065;-70
2023/06/07 11:15:35;;;;;;;4.63;2.97;;;26.40;99.90;;;;;;4997649;28;20135;-72
2023/06/07 11:18:07;;;;;;;6.03;3.00;;;26.60;99.90;;;;;;4993794;28;20048;-71
2023/06/07 11:20:39;;;;;;;5.93;2.95;;;26.60;99.90;;;;;;4997818;28;20482;-71
2023/06/07 11:23:24;;;;;;;4.47;2.90;;;26.60;99.90;;;;;;4996653;28;20046;-71
2023/06/07 11:25:56;;;;;;;4.90;2.78;;;26.50;99.90;;;;;;4997204;28;20582;-71
2023/06/07 11:28:23;;;;;;;4.78;3.10;;;26.50;99.90;;;;;;4997495;28;20023;-71
2023/06/07 11:30:50;;;;;;;6.32;3.10;;;26.50;99.90;;;;;;4997120;28;20050;-71
2023/06/07 11:33:16;;;;;;;5.95;3.28;;;26.60;99.90;;;;;;4976643;28;20547;-71
2023/06/07 11:35:42;;;;;;;5.82;3.28;;;26.70;99.90;;;;;;4984432;28;20139;-71
2023/06/07 11:38:09;;;;;;;5.00;2.65;;;26.70;99.90;;;;;;4997316;28;20030;-72
2023/06/07 11:40:35;;;;;;;4.35;2.25;;;26.70;99.90;;;;;;4996810;28;20022;-71
2023/06/07 11:43:02;;;;;;;5.65;2.60;;;26.60;99.90;;;;;;4997283;28;20080;-71
2023/06/07 11:45:30;;;;;;;3.60;2.50;;;26.60;99.90;;;;;;4996989;28;20046;-71
2023/06/07 11:48:02;;;;;;;3.15;2.22;;;26.70;99.90;;;;;;4997041;28;20042;-69
2023/06/07 11:50:28;;;;;;;5.95;2.47;;;26.80;99.90;;;;;;4997033;28;20014;-69
2023/06/07 11:52:54;;;;;;;4.70;2.20;;;26.70;99.90;;;;;;4997226;28;20022;-69
2023/06/07 11:55:20;;;;;;;3.65;2.17;;;26.70;99.90;;;;;;4996826;28;20026;-69
2023/06/07 11:57:51;;;;;;;6.35;2.53;;;26.70;99.90;;;;;;4996956;28;20046;-68
2023/06/07 12:00:20;;;;;;;3.67;2.30;;;26.80;99.90;;;;;;4997018;28;20026;-69
2023/06/07 12:02:47;;;;;;;3.88;2.05;;;26.70;99.90;;;;;;4979711;28;20033;-69
2023/06/07 12:05:13;;;;;;;3.33;2.00;;;26.90;99.90;;;;;;5007229;28;20023;-69
2023/06/07 12:07:40;;;;;;;4.03;2.15;;;27.00;99.90;;;;;;4997005;28;20427;-69
2023/06/07 12:10:10;;;;;;;5.65;2.45;;;27.10;99.90;;;;;;4996551;28;20110;-70
2023/06/07 12:12:36;;;;;;;5.53;2.55;;;27.20;99.90;;;;;;4979446;28;20022;-71
2023/06/07 12:15:06;;;;;;;6.25;2.47;;;27.30;99.90;;;;;;4996785;28;20090;-69
2023/06/07 12:17:36;;;;;;;2.80;2.20;;;27.30;99.90;;;;;;4997063;28;20026;-69
2023/06/07 12:20:12;;;;;;;5.00;2.28;;;27.30;99.90;;;;;;4996668;28;20077;-69
2023/06/07 12:22:38;;;;;;;4.05;2.00;;;27.20;99.90;;;;;;4996861;28;20030;-69
2023/06/07 12:25:14;;;;;;;3.42;2.25;;;27.00;99.90;;;;;;4996533;28;20149;-71
2023/06/07 12:27:45;;;;;;;6.68;2.13;;;27.10;99.90;;;;;;4996813;28;20052;-70
2023/06/07 12:30:11;;;;;;;5.25;2.17;;;27.00;99.90;;;;;;4996954;28;20033;-70
2023/06/07 12:32:37;;;;;;;5.22;2.22;;;27.00;99.90;;;;;;4996473;28;20113;-71
2023/06/07 12:35:07;;;;;;;5.50;2.88;;;27.10;99.90;;;;;;5000091;28;20056;-71
2023/06/07 12:37:36;;;;;;;5.82;2.58;;;27.30;99.90;;;;;;4999371;28;20019;-70
2023/06/07 12:40:07;;;;;;;4.43;2.42;;;27.40;99.90;;;;;;4982325;28;20050;-71